createdAt,value
2018-10-17T00:00:57.045Z,944.25
2018-10-17T00:02:05.089Z,944.23
2018-10-17T00:03:13.259Z,944.24
2018-10-17T00:04:21.213Z,944.26
2018-10-17T00:05:29.277Z,944.24
2018-10-17T00:06:37.337Z,944.27
2018-10-17T00:07:45.395Z,944.23
2018-10-17T00:08:53.550Z,944.26
2018-10-17T00:10:01.520Z,944.19
2018-10-17T00:11:09.683Z,944.27
2018-10-17T00:12:17.629Z,944.27
2018-10-17T00:13:25.739Z,944.26
2018-10-17T00:14:33.868Z,944.24
2018-10-17T00:15:41.832Z,944.26
2018-10-17T00:16:49.897Z,944.26
2018-10-17T00:17:57.944Z,944.31
2018-10-17T00:19:06.012Z,944.29
2018-10-17T00:20:14.174Z,944.31
2018-10-17T00:21:22.123Z,944.27
2018-10-17T00:22:30.188Z,944.27
2018-10-17T00:23:38.235Z,944.24
2018-10-17T00:24:46.312Z,944.25
2018-10-17T00:25:54.481Z,944.24
2018-10-17T00:27:02.438Z,944.23
2018-10-17T00:28:10.557Z,944.24
2018-10-17T00:29:18.538Z,944.17
2018-10-17T00:30:26.624Z,944.20
2018-10-17T00:31:34.784Z,944.17
2018-10-17T00:32:42.746Z,944.20
2018-10-17T00:33:50.928Z,944.16
2018-10-17T00:34:58.891Z,944.17
2018-10-17T00:36:06.919Z,944.20
2018-10-17T00:37:15.234Z,944.21
2018-10-17T00:38:23.043Z,944.19
2018-10-17T00:39:31.107Z,944.20
2018-10-17T00:40:39.182Z,944.19
2018-10-17T00:41:47.243Z,944.17
2018-10-17T00:42:55.443Z,944.17
2018-10-17T00:44:03.357Z,944.15
2018-10-17T00:45:11.420Z,944.21
2018-10-17T00:46:19.487Z,944.18
2018-10-17T00:47:27.640Z,944.22
2018-10-17T00:48:35.614Z,944.14
2018-10-17T00:49:43.683Z,944.15
2018-10-17T00:50:51.723Z,944.19
2018-10-17T00:51:59.801Z,944.18
2018-10-17T00:53:07.924Z,944.15
2018-10-17T00:54:15.906Z,944.14
2018-10-17T00:55:23.963Z,944.15
2018-10-17T00:56:32.032Z,944.17
2018-10-17T00:57:40.195Z,944.13
2018-10-17T00:58:48.139Z,944.13
2018-10-17T00:59:56.221Z,944.13
2018-10-17T01:01:04.346Z,944.14
2018-10-17T01:02:12.339Z,944.11
2018-10-17T01:03:20.501Z,944.11
2018-10-17T01:04:28.443Z,944.12
2018-10-17T01:05:36.514Z,944.10
2018-10-17T03:11:00.004Z,943.56
2018-10-17T03:11:31.296Z,943.57
2018-10-17T03:12:39.360Z,943.53
2018-10-17T03:13:47.416Z,943.52
2018-10-17T03:14:55.476Z,943.51
2018-10-17T03:16:03.628Z,943.53
2018-10-17T03:17:11.721Z,943.52
2018-10-17T03:18:19.661Z,943.51
2018-10-17T03:19:27.765Z,943.55
2018-10-17T03:20:35.776Z,943.50
2018-10-17T03:21:43.896Z,943.50
2018-10-17T03:22:51.955Z,943.52
2018-10-17T03:23:59.969Z,943.53
2018-10-17T03:25:08.094Z,943.58
2018-10-17T03:26:16.180Z,943.54
2018-10-17T03:27:24.250Z,943.53
2018-10-17T03:28:32.201Z,943.57
2018-10-17T03:29:40.267Z,943.54
2018-10-17T03:30:48.291Z,943.58
2018-10-17T03:31:56.375Z,943.55
2018-10-17T03:33:04.486Z,943.54
2018-10-17T03:34:12.501Z,943.55
2018-10-17T03:35:20.636Z,943.53
2018-10-17T03:36:28.589Z,943.51
2018-10-17T03:37:36.778Z,943.53
2018-10-17T03:38:44.733Z,943.53
2018-10-17T03:39:52.809Z,943.52
2018-10-17T03:41:00.891Z,943.54
2018-10-17T03:42:09.021Z,943.54
2018-10-17T03:43:17.270Z,943.52
2018-10-17T03:44:25.052Z,943.54
2018-10-17T03:45:33.102Z,943.53
2018-10-17T03:46:41.168Z,943.55
2018-10-17T03:47:49.327Z,943.56
2018-10-17T03:48:57.347Z,943.57
2018-10-17T03:50:05.352Z,943.58
2018-10-17T03:51:13.404Z,943.59
2018-10-17T03:52:21.469Z,943.57
2018-10-17T03:53:29.529Z,943.55
2018-10-17T03:54:37.593Z,943.54
2018-10-17T03:55:45.656Z,943.53
2018-10-17T03:56:53.702Z,943.56
2018-10-17T03:58:01.862Z,943.53
2018-10-17T03:59:09.988Z,943.53
2018-10-17T04:00:17.931Z,943.53
2018-10-17T04:01:25.947Z,943.54
2018-10-17T04:02:34.021Z,943.53
2018-10-17T04:03:42.168Z,943.56
2018-10-17T04:04:50.142Z,943.51
2018-10-17T04:05:58.171Z,943.54
2018-10-17T04:07:06.260Z,943.56
2018-10-17T04:08:14.321Z,943.52
2018-10-17T04:09:22.472Z,943.51
2018-10-17T04:10:30.429Z,943.51
2018-10-17T04:11:38.487Z,943.52
2018-10-17T04:12:46.656Z,943.53
2018-10-17T04:13:54.611Z,943.53
2018-10-17T04:15:02.905Z,943.55
2018-10-17T04:16:10.739Z,943.54
2018-10-17T04:17:18.870Z,943.58
2018-10-17T04:18:26.878Z,943.55
2018-10-17T04:19:34.916Z,943.52
2018-10-17T04:20:43.126Z,943.54
2018-10-17T04:21:51.040Z,943.55
2018-10-17T04:22:59.170Z,943.53
2018-10-17T04:24:07.176Z,943.51
2018-10-17T04:25:15.279Z,943.55
2018-10-17T04:26:23.368Z,943.53
2018-10-17T04:27:31.438Z,943.54
2018-10-17T04:28:39.400Z,943.51
2018-10-17T04:29:47.462Z,943.54
2018-10-17T04:30:55.588Z,943.57
2018-10-17T04:32:03.689Z,943.54
2018-10-17T04:33:11.643Z,943.52
2018-10-17T04:34:19.712Z,943.53
2018-10-17T04:35:28.584Z,943.52
2018-10-17T04:36:35.827Z,943.53
2018-10-17T04:37:43.979Z,943.46
2018-10-17T04:38:51.951Z,943.48
2018-10-17T04:40:00.001Z,943.49
2018-10-17T04:41:08.156Z,943.50
2018-10-17T04:42:16.148Z,943.50
2018-10-17T04:43:24.245Z,943.45
2018-10-17T04:44:32.263Z,943.47
2018-10-17T04:45:40.320Z,943.46
2018-10-17T04:46:48.346Z,943.48
2018-10-17T04:47:56.532Z,943.45
2018-10-17T04:49:04.548Z,943.41
2018-10-17T04:50:12.557Z,943.42
2018-10-17T04:51:20.602Z,943.43
2018-10-17T04:52:29.874Z,943.41
2018-10-17T04:53:36.732Z,943.39
2018-10-17T04:54:45.110Z,943.38
2018-10-17T04:55:52.889Z,943.43
2018-10-17T04:57:00.911Z,943.39
2018-10-17T04:58:09.071Z,943.43
2018-10-17T04:59:17.068Z,943.43
2018-10-17T05:00:25.100Z,943.46
2018-10-17T05:01:33.223Z,943.42
2018-10-17T05:02:41.213Z,943.47
2018-10-17T05:03:49.363Z,943.47
2018-10-17T05:04:57.383Z,943.48
2018-10-17T05:06:05.403Z,943.47
2018-10-17T05:07:13.477Z,943.47
2018-10-17T05:08:21.515Z,943.47
2018-10-17T05:09:29.636Z,943.48
2018-10-17T05:10:37.640Z,943.47
2018-10-17T05:11:46.802Z,943.49
2018-10-17T05:12:53.862Z,943.49
2018-10-17T05:14:01.916Z,943.47
2018-10-17T05:15:10.029Z,943.45
2018-10-17T05:16:18.049Z,943.49
2018-10-17T05:17:27.214Z,943.50
2018-10-17T05:18:34.061Z,943.47
2018-10-17T05:19:42.131Z,943.50
2018-10-17T05:20:50.285Z,943.54
2018-10-17T05:21:58.232Z,943.55
2018-10-17T05:23:06.358Z,943.55
2018-10-17T05:24:14.364Z,943.61
2018-10-17T05:25:22.422Z,943.61
2018-10-17T05:26:30.583Z,943.65
2018-10-17T05:27:38.533Z,943.61
2018-10-17T05:28:46.606Z,943.63
2018-10-17T05:29:54.891Z,943.61
2018-10-17T05:31:02.804Z,943.64
2018-10-17T05:32:10.891Z,943.65
2018-10-17T05:33:18.832Z,943.63
2018-10-17T05:34:26.908Z,943.66
2018-10-17T05:35:34.980Z,943.66
2018-10-17T05:36:43.037Z,943.67
2018-10-17T05:37:51.285Z,943.71
2018-10-17T05:38:59.151Z,943.70
2018-10-17T05:40:07.224Z,943.72
2018-10-17T05:41:15.288Z,943.71
2018-10-17T05:42:23.339Z,943.68
2018-10-17T05:43:31.398Z,943.70
2018-10-17T05:44:39.462Z,943.66
2018-10-17T05:45:47.526Z,943.64
2018-10-17T05:46:55.594Z,943.65
2018-10-17T05:48:03.740Z,943.66
2018-10-17T05:49:11.795Z,943.69
2018-10-17T05:50:19.762Z,943.69
2018-10-17T05:51:27.820Z,943.69
2018-10-17T05:52:35.984Z,943.70
2018-10-17T05:53:43.933Z,943.71
2018-10-17T05:54:52.051Z,943.72
2018-10-17T05:56:00.066Z,943.69
2018-10-17T05:57:08.110Z,943.74
2018-10-17T05:58:16.280Z,943.73
2018-10-17T05:59:24.252Z,943.74
2018-10-17T06:00:32.402Z,943.74
2018-10-17T06:01:40.420Z,943.77
2018-10-17T06:02:48.435Z,943.76
2018-10-17T06:03:56.592Z,943.73
2018-10-17T06:05:04.632Z,943.79
2018-10-17T06:06:12.604Z,943.81
2018-10-17T06:07:20.674Z,943.79
2018-10-17T06:08:28.707Z,943.81
2018-10-17T06:09:37.019Z,943.80
2018-10-17T06:10:44.850Z,943.80
2018-10-17T06:11:52.911Z,943.83
2018-10-17T06:13:01.046Z,943.86
2018-10-17T06:14:09.022Z,943.86
2018-10-17T06:15:17.189Z,943.85
2018-10-17T06:16:25.255Z,943.84
2018-10-17T06:17:33.228Z,943.84
2018-10-17T06:18:41.285Z,943.83
2018-10-17T06:19:49.340Z,943.84
2018-10-17T06:20:57.507Z,943.83
2018-10-17T06:22:05.454Z,943.87
2018-10-17T06:23:13.566Z,943.86
2018-10-17T06:24:21.588Z,943.85
2018-10-17T06:25:29.646Z,943.84
2018-10-17T06:26:37.803Z,943.86
2018-10-17T06:27:45.770Z,943.85
2018-10-17T06:28:53.815Z,943.91
2018-10-17T06:30:01.878Z,943.91
2018-10-17T06:31:09.965Z,943.94
2018-10-17T06:32:18.080Z,943.96
2018-10-17T06:33:26.064Z,943.94
2018-10-17T06:34:34.142Z,943.90
2018-10-17T06:35:42.204Z,943.91
2018-10-17T06:36:50.246Z,943.91
2018-10-17T06:37:58.334Z,943.90
2018-10-17T06:39:06.374Z,943.94
2018-10-17T06:40:14.423Z,943.92
2018-10-17T06:41:22.497Z,943.94
2018-10-17T06:42:33.802Z,943.93
2018-10-17T06:43:38.708Z,943.96
2018-10-17T06:44:46.678Z,943.96
2018-10-17T06:45:54.736Z,943.93
2018-10-17T06:47:02.826Z,943.93
2018-10-17T06:48:10.963Z,943.89
2018-10-17T06:49:19.028Z,943.90
2018-10-17T06:50:26.993Z,943.93
2018-10-17T06:51:35.049Z,943.89
2018-10-17T06:52:43.106Z,943.93
2018-10-17T06:53:51.374Z,943.91
2018-10-17T06:54:59.294Z,943.98
2018-10-17T06:56:07.303Z,943.94
2018-10-17T06:57:15.361Z,943.94
2018-10-17T06:58:23.410Z,943.92
2018-10-17T06:59:31.577Z,943.93
2018-10-17T07:00:39.543Z,943.91
2018-10-17T07:01:47.726Z,943.87
2018-10-17T07:02:55.761Z,943.91
2018-10-17T07:04:03.742Z,943.90
2018-10-17T07:05:11.983Z,943.90
2018-10-17T07:06:19.849Z,943.93
2018-10-17T07:07:27.920Z,943.90
2018-10-17T07:08:36.154Z,943.96
2018-10-17T07:09:44.049Z,943.88
2018-10-17T07:10:52.115Z,943.91
2018-10-17T07:12:00.161Z,943.92
2018-10-17T07:13:08.233Z,943.93
2018-10-17T07:14:16.410Z,943.88
2018-10-17T07:15:24.541Z,943.94
2018-10-17T07:16:32.416Z,943.95
2018-10-17T07:17:40.498Z,943.97
2018-10-17T07:18:48.633Z,943.99
2018-10-17T07:19:56.702Z,944.08
2018-10-17T07:21:04.669Z,944.05
2018-10-17T07:22:12.722Z,943.99
2018-10-17T07:23:20.790Z,943.94
2018-10-17T07:24:28.844Z,943.98
2018-10-17T07:25:37.016Z,944.07
2018-10-17T07:26:44.971Z,944.05
2018-10-17T07:27:53.044Z,944.26
2018-10-17T07:29:01.147Z,944.33
2018-10-17T07:30:09.167Z,944.18
2018-10-17T07:31:17.444Z,944.03
2018-10-17T07:32:25.299Z,944.03
2018-10-17T07:33:33.366Z,944.05
2018-10-17T07:34:41.525Z,944.06
2018-10-17T07:35:49.550Z,944.03
2018-10-17T07:36:57.680Z,944.06
2018-10-17T07:38:05.624Z,944.09
2018-10-17T07:39:13.675Z,944.08
2018-10-17T07:40:21.765Z,944.08
2018-10-17T07:41:29.803Z,944.12
2018-10-17T07:42:37.927Z,944.08
2018-10-17T07:43:45.936Z,944.10
2018-10-17T07:44:54.004Z,944.11
2018-10-17T07:46:02.097Z,944.11
2018-10-17T07:47:10.123Z,944.12
2018-10-17T07:48:18.220Z,944.15
2018-10-17T07:49:26.255Z,944.13
2018-10-17T07:50:34.412Z,944.14
2018-10-17T07:51:42.394Z,944.10
2018-10-17T07:52:50.550Z,944.09
2018-10-17T07:53:58.520Z,944.09
2018-10-17T07:55:06.613Z,944.12
2018-10-17T07:56:14.654Z,944.10
2018-10-17T07:57:22.711Z,944.11
2018-10-17T07:58:30.791Z,944.11
2018-10-17T07:59:38.838Z,944.16
2018-10-17T08:00:46.901Z,944.13
2018-10-17T08:01:54.966Z,944.09
2018-10-17T08:03:03.080Z,944.15
2018-10-17T08:04:11.109Z,944.14
2018-10-17T08:05:19.144Z,944.14
2018-10-17T08:06:27.337Z,944.12
2018-10-17T08:07:35.382Z,944.17
2018-10-17T08:08:43.353Z,944.15
2018-10-17T08:09:51.425Z,944.12
2018-10-17T08:10:59.486Z,944.11
2018-10-17T08:12:07.627Z,944.09
2018-10-17T08:13:15.706Z,944.11
2018-10-17T08:14:23.694Z,944.12
2018-10-17T08:15:31.756Z,944.08
2018-10-17T08:16:39.808Z,944.10
2018-10-17T08:17:47.883Z,944.06
2018-10-17T08:18:55.934Z,944.06
2018-10-17T08:20:04.001Z,944.06
2018-10-17T08:21:12.139Z,944.06
2018-10-17T08:22:20.240Z,944.03
2018-10-17T08:23:28.283Z,944.02
2018-10-17T08:24:36.264Z,944.06
2018-10-17T08:25:44.332Z,944.01
2018-10-17T08:26:52.416Z,944.06
2018-10-17T08:28:00.666Z,944.04
2018-10-17T08:29:08.553Z,944.06
2018-10-17T08:30:16.652Z,944.04
2018-10-17T08:31:24.863Z,944.04
2018-10-17T08:32:34.559Z,944.00
2018-10-17T08:33:42.598Z,944.02
2018-10-17T08:34:50.976Z,944.07
2018-10-17T08:35:59.210Z,944.03
2018-10-17T08:38:53.484Z,944.07
2018-10-17T08:40:03.078Z,944.06
2018-10-17T08:41:11.173Z,944.07
2018-10-17T08:42:19.094Z,944.02
2018-10-17T08:43:27.156Z,944.00
2018-10-17T08:44:35.230Z,944.01
2018-10-17T08:45:43.385Z,943.96
2018-10-17T08:46:51.365Z,943.99
2018-10-17T08:47:59.423Z,943.99
2018-10-17T08:49:07.495Z,944.01
2018-10-17T08:50:15.640Z,944.03
2018-10-17T08:51:23.725Z,943.99
2018-10-17T08:52:31.787Z,943.98
2018-10-17T08:53:39.784Z,944.03
2018-10-17T08:54:47.817Z,944.06
2018-10-17T08:57:09.896Z,944.03
2018-10-17T08:58:17.864Z,944.05
2018-10-17T08:59:25.929Z,944.05
2018-10-17T09:00:33.995Z,944.06
2018-10-17T09:01:42.059Z,944.07
2018-10-17T09:02:50.178Z,944.12
2018-10-17T09:03:58.312Z,944.13
2018-10-17T09:05:06.265Z,944.15
2018-10-17T09:06:14.446Z,944.16
2018-10-17T09:07:22.390Z,944.16
2018-10-17T09:08:30.451Z,944.15
2018-10-17T09:09:38.507Z,944.20
2018-10-17T09:10:46.578Z,944.19
2018-10-17T09:11:54.701Z,944.16
2018-10-17T09:13:02.816Z,944.18
2018-10-17T09:14:10.791Z,944.14
2018-10-17T09:15:18.831Z,944.19
2018-10-17T09:16:26.970Z,944.20
2018-10-17T09:17:34.991Z,944.17
2018-10-17T09:18:43.147Z,944.18
2018-10-17T09:19:51.384Z,944.14
2018-10-17T09:20:59.561Z,944.17
2018-10-17T09:22:07.559Z,944.14
2018-10-17T09:23:15.408Z,944.14
2018-10-17T09:24:23.475Z,944.16
2018-10-17T09:25:31.482Z,944.14
2018-10-17T09:26:39.523Z,944.16
2018-10-17T09:27:47.585Z,944.14
2018-10-17T09:28:55.663Z,944.17
2018-10-17T09:30:03.909Z,944.16
2018-10-17T09:31:11.789Z,944.14
2018-10-17T09:32:19.851Z,944.16
2018-10-17T09:33:27.916Z,944.17
2018-10-17T09:34:35.986Z,944.18
2018-10-17T09:35:44.243Z,944.20
2018-10-17T09:36:52.124Z,944.23
2018-10-17T09:38:00.231Z,944.23
2018-10-17T09:39:08.216Z,944.22
2018-10-17T09:40:16.410Z,944.23
2018-10-17T09:41:24.474Z,944.24
2018-10-17T09:42:32.444Z,944.28
2018-10-17T09:43:40.515Z,944.22
2018-10-17T09:44:48.573Z,944.20
2018-10-17T09:45:56.725Z,944.22
2018-10-17T09:47:04.830Z,944.19
2018-10-17T09:48:12.851Z,944.21
2018-10-17T09:49:20.838Z,944.18
2018-10-17T09:50:28.898Z,944.20
2018-10-17T09:51:36.977Z,944.23
2018-10-17T09:52:45.142Z,944.17
2018-10-17T09:53:53.151Z,944.18
2018-10-17T09:55:01.195Z,944.17
2018-10-17T09:56:09.281Z,944.20
2018-10-17T09:57:17.326Z,944.16
2018-10-17T09:58:25.493Z,944.17
2018-10-17T09:59:33.465Z,944.14
2018-10-17T10:00:41.519Z,944.13
2018-10-17T10:01:49.595Z,944.12
2018-10-17T10:02:57.752Z,944.13
2018-10-17T10:04:05.759Z,944.12
2018-10-17T10:05:13.785Z,944.10
2018-10-17T10:06:21.869Z,944.11
2018-10-17T10:07:30.031Z,944.09
2018-10-17T10:08:38.076Z,944.05
2018-10-17T10:09:46.078Z,944.10
2018-10-17T10:10:54.200Z,944.09
2018-10-17T10:12:02.271Z,944.05
2018-10-17T10:13:10.582Z,944.07
2018-10-17T10:14:19.333Z,944.07
2018-10-17T10:15:27.232Z,944.06
2018-10-17T10:16:35.280Z,944.01
2018-10-17T10:18:54.736Z,943.99
2018-10-17T10:20:02.705Z,944.04
2018-10-17T10:21:10.789Z,943.99
2018-10-17T10:22:20.469Z,943.98
2018-10-17T10:23:28.585Z,943.99
2018-10-17T10:24:37.451Z,943.95
2018-10-17T10:25:44.096Z,943.92
2018-10-17T10:26:52.125Z,943.94
2018-10-17T10:29:17.356Z,943.90
2018-10-17T10:30:25.594Z,943.89
2018-10-17T10:31:33.479Z,943.88
2018-10-17T10:32:43.172Z,943.87
2018-10-17T10:33:51.496Z,943.85
2018-10-17T10:34:59.509Z,943.88
2018-10-17T10:36:07.673Z,943.86
2018-10-17T10:37:15.639Z,943.83
2018-10-17T10:38:23.714Z,943.88
2018-10-17T10:39:31.788Z,943.81
2018-10-17T10:40:40.000Z,943.83
2018-10-17T10:41:47.908Z,943.82
2018-10-17T10:42:55.982Z,943.76
2018-10-17T10:44:04.059Z,943.76
2018-10-17T10:45:12.280Z,943.79
2018-10-17T10:46:20.336Z,943.78
2018-10-17T10:47:28.243Z,943.77
2018-10-17T10:48:36.332Z,943.78
2018-10-17T10:49:44.402Z,943.71
2018-10-17T10:50:52.482Z,943.75
2018-10-17T10:52:00.637Z,943.78
2018-10-17T10:53:08.817Z,943.76
2018-10-17T10:54:16.982Z,943.76
2018-10-17T10:55:25.039Z,943.71
2018-10-17T10:56:33.017Z,943.75
2018-10-17T10:57:41.174Z,943.72
2018-10-17T10:58:49.326Z,943.74
2018-10-17T10:59:57.267Z,943.68
2018-10-17T11:01:05.414Z,943.74
2018-10-17T11:02:13.436Z,943.69
2018-10-17T11:03:21.503Z,943.66
2018-10-17T11:04:29.541Z,943.63
2018-10-17T11:05:37.760Z,943.62
2018-10-17T11:06:45.619Z,943.59
2018-10-17T11:07:53.841Z,943.57
2018-10-17T11:09:01.776Z,943.58
2018-10-17T11:10:09.838Z,943.58
2018-10-17T11:11:18.106Z,943.57
2018-10-17T11:12:25.974Z,943.57
2018-10-17T11:13:34.052Z,943.60
2018-10-17T11:14:42.385Z,943.56
2018-10-17T11:15:50.185Z,943.55
2018-10-17T11:16:58.262Z,943.55
2018-10-17T11:18:06.406Z,943.53
2018-10-17T11:19:14.389Z,943.52
2018-10-17T11:20:24.670Z,943.52
2018-10-17T11:21:32.948Z,943.50
2018-10-17T11:22:41.111Z,943.47
2018-10-17T11:23:49.069Z,943.47
2018-10-17T11:24:57.142Z,943.46
2018-10-17T11:26:05.213Z,943.46
2018-10-17T11:27:13.452Z,943.48
2018-10-17T11:28:21.446Z,943.47
2018-10-17T11:29:29.435Z,943.44
2018-10-17T11:30:37.493Z,943.45
2018-10-17T11:31:45.587Z,943.46
2018-10-17T11:32:53.642Z,943.47
2018-10-17T11:34:01.797Z,943.44
2018-10-17T11:35:09.815Z,943.41
2018-10-17T11:36:17.837Z,943.39
2018-10-17T11:37:25.896Z,943.42
2018-10-17T11:38:33.980Z,943.40
2018-10-17T11:39:42.140Z,943.40
2018-10-17T11:40:50.121Z,943.40
2018-10-17T11:41:58.985Z,943.34
2018-10-17T11:43:07.096Z,943.30
2018-10-17T11:44:15.126Z,943.28
2018-10-17T11:45:23.326Z,943.24
2018-10-17T11:46:31.255Z,943.26
2018-10-17T11:47:39.361Z,943.23
2018-10-17T11:48:47.408Z,943.24
2018-10-17T11:49:55.475Z,943.20
2018-10-17T11:51:03.662Z,943.19
2018-10-17T11:52:11.605Z,943.21
2018-10-17T11:54:31.978Z,943.20
2018-10-17T11:55:40.039Z,943.18
2018-10-17T11:56:48.219Z,943.15
2018-10-17T11:57:56.275Z,943.11
2018-10-17T11:59:04.419Z,943.15
2018-10-17T12:00:12.324Z,943.07
2018-10-17T12:01:20.409Z,943.09
2018-10-17T12:02:28.549Z,943.03
2018-10-17T12:03:36.830Z,943.03
2018-10-17T12:04:44.849Z,943.00
2018-10-17T12:05:52.787Z,943.00
2018-10-17T12:07:00.731Z,942.96
2018-10-17T12:08:08.824Z,942.99
2018-10-17T12:09:17.015Z,942.96
2018-10-17T12:10:24.946Z,942.93
2018-10-17T12:11:33.063Z,942.94
2018-10-17T12:12:41.176Z,942.96
2018-10-17T12:13:49.155Z,942.94
2018-10-17T12:14:57.274Z,942.88
2018-10-17T12:16:05.287Z,942.88
2018-10-17T12:17:13.349Z,942.86
2018-10-17T12:18:21.524Z,942.87
2018-10-17T12:19:29.497Z,942.82
2018-10-17T12:20:37.565Z,942.84
2018-10-17T12:21:45.635Z,942.80
2018-10-17T12:22:53.702Z,942.79
2018-10-17T12:24:01.938Z,942.76
2018-10-17T12:25:09.879Z,942.78
2018-10-17T12:26:17.912Z,942.74
2018-10-17T12:27:25.988Z,942.75
2018-10-17T12:28:34.223Z,942.73
2018-10-17T12:29:42.224Z,942.72
2018-10-17T12:30:50.201Z,942.67
2018-10-17T12:31:58.248Z,942.67
2018-10-17T12:33:06.412Z,942.70
2018-10-17T12:34:14.399Z,942.66
2018-10-17T12:35:22.584Z,942.69
2018-10-17T12:36:30.537Z,942.69
2018-10-17T12:37:38.588Z,942.68
2018-10-17T12:38:46.717Z,942.67
2018-10-17T12:39:54.945Z,942.67
2018-10-17T12:41:03.104Z,942.62
2018-10-17T12:42:10.891Z,942.64
2018-10-17T12:43:19.042Z,942.64
2018-10-17T12:44:27.020Z,942.66
2018-10-17T12:45:35.166Z,942.65
2018-10-17T12:46:43.221Z,942.68
2018-10-17T12:47:51.229Z,942.64
2018-10-17T12:48:59.339Z,942.62
2018-10-17T12:50:07.446Z,942.69
2018-10-17T12:51:15.442Z,942.67
2018-10-17T12:52:23.595Z,942.66
2018-10-17T12:53:31.616Z,942.61
2018-10-17T12:54:39.644Z,942.67
2018-10-17T12:55:47.706Z,942.67
2018-10-17T12:56:55.786Z,942.69
2018-10-17T12:58:03.911Z,942.67
2018-10-17T12:59:13.923Z,942.66
2018-10-17T13:00:20.000Z,942.65
2018-10-17T13:01:28.834Z,942.60
2018-10-17T13:02:36.188Z,942.58
2018-10-17T13:03:44.219Z,942.56
2018-10-17T13:04:52.297Z,942.60
2018-10-17T13:06:00.363Z,942.63
2018-10-17T13:07:08.468Z,942.61
2018-10-17T13:08:16.565Z,942.56
2018-10-17T13:09:24.600Z,942.54
2018-10-17T13:10:32.619Z,942.54
2018-10-17T13:11:40.819Z,942.51
2018-10-17T13:12:48.820Z,942.53
2018-10-17T13:13:56.831Z,942.49
2018-10-17T13:15:05.062Z,942.48
2018-10-17T13:16:12.973Z,942.45
2018-10-17T13:17:21.036Z,942.47
2018-10-17T13:18:29.186Z,942.41
2018-10-17T13:19:37.202Z,942.46
2018-10-17T13:20:45.235Z,942.41
2018-10-17T13:21:53.308Z,942.42
2018-10-17T13:24:12.158Z,942.42
2018-10-17T13:25:20.135Z,942.44
2018-10-17T13:26:28.176Z,942.47
2018-10-17T13:27:36.279Z,942.46
2018-10-17T13:28:44.342Z,942.41
2018-10-17T13:29:52.494Z,942.41
2018-10-17T13:31:00.574Z,942.42
2018-10-17T13:32:08.514Z,942.39
2018-10-17T13:33:16.618Z,942.37
2018-10-17T13:34:24.755Z,942.42
2018-10-17T13:35:32.836Z,942.43
2018-10-17T13:36:40.824Z,942.43
2018-10-17T13:37:48.859Z,942.50
2018-10-17T13:38:56.954Z,942.46
2018-10-17T13:41:19.665Z,942.39
2018-10-17T13:42:27.639Z,942.40
2018-10-17T13:43:35.704Z,942.40
2018-10-17T13:44:43.781Z,942.42
2018-10-17T13:45:51.846Z,942.42
2018-10-17T13:47:00.012Z,942.41
2018-10-17T13:48:07.972Z,942.36
2018-10-17T13:49:16.091Z,942.37
2018-10-17T13:50:24.119Z,942.40
2018-10-17T13:51:32.199Z,942.39
2018-10-17T13:52:40.355Z,942.36
2018-10-17T13:54:59.072Z,942.42
2018-10-17T13:56:07.076Z,942.40
2018-10-17T13:57:16.163Z,942.42
2018-10-17T13:58:24.379Z,942.40
2018-10-17T13:59:32.322Z,942.42
2018-10-17T14:00:40.364Z,942.46
2018-10-17T14:01:48.417Z,942.48
2018-10-17T14:02:56.589Z,942.44
2018-10-17T14:04:04.593Z,942.45
2018-10-17T14:05:12.633Z,942.48
2018-10-17T14:06:20.825Z,942.45
2018-10-17T14:07:28.735Z,942.44
2018-10-17T14:08:36.914Z,942.47
2018-10-17T14:09:44.900Z,942.43
2018-10-17T14:10:52.974Z,942.42
2018-10-17T14:12:01.088Z,942.44
2018-10-17T14:13:09.146Z,942.39
2018-10-17T14:14:17.280Z,942.38
2018-10-17T14:15:25.236Z,942.42
2018-10-17T14:16:33.312Z,942.38
2018-10-17T14:17:41.481Z,942.37
2018-10-17T14:18:49.492Z,942.39
2018-10-17T14:19:57.605Z,942.39
2018-10-17T14:21:05.656Z,942.34
2018-10-17T14:22:13.653Z,942.35
2018-10-17T14:23:21.767Z,942.29
2018-10-17T14:24:29.791Z,942.31
2018-10-17T14:25:37.954Z,942.28
2018-10-17T14:26:45.938Z,942.30
2018-10-17T14:27:54.033Z,942.31
2018-10-17T14:29:02.073Z,942.31
2018-10-17T14:30:10.168Z,942.30
2018-10-17T14:31:18.283Z,942.31
2018-10-17T14:32:26.294Z,942.28
2018-10-17T14:33:34.351Z,942.32
2018-10-17T14:34:42.416Z,942.32
2018-10-17T14:35:50.482Z,942.28
2018-10-17T14:36:58.649Z,942.27
2018-10-17T14:38:06.882Z,942.26
2018-10-17T14:39:14.736Z,942.24
2018-10-17T14:40:22.767Z,942.26
2018-10-17T14:41:30.817Z,942.22
2018-10-17T14:42:38.964Z,942.24
2018-10-17T14:43:47.053Z,942.20
2018-10-17T14:44:55.043Z,942.23
2018-10-17T14:46:03.099Z,942.19
2018-10-17T14:47:11.174Z,942.17
2018-10-17T14:48:19.422Z,942.19
2018-10-17T14:49:27.316Z,942.17
2018-10-17T14:50:35.384Z,942.16
2018-10-17T14:51:43.444Z,942.22
2018-10-17T14:52:51.632Z,942.20
2018-10-17T14:53:59.580Z,942.17
2018-10-17T14:55:07.801Z,942.19
2018-10-17T14:56:15.764Z,942.20
2018-10-17T14:57:23.795Z,942.18
2018-10-17T14:58:31.956Z,942.20
2018-10-17T14:59:39.922Z,942.22
2018-10-17T15:00:47.991Z,942.18
2018-10-17T15:01:56.066Z,942.18
2018-10-17T15:03:04.185Z,942.20
2018-10-17T15:04:12.307Z,942.18
2018-10-17T15:05:20.433Z,942.19
2018-10-17T15:06:28.322Z,942.18
2018-10-17T15:07:36.406Z,942.17
2018-10-17T15:08:44.478Z,942.20
2018-10-17T15:09:52.722Z,942.18
2018-10-17T15:11:00.881Z,942.23
2018-10-17T15:12:08.785Z,942.22
2018-10-17T15:13:16.748Z,942.20
2018-10-17T15:14:24.816Z,942.18
2018-10-17T15:15:32.997Z,942.16
2018-10-17T15:16:40.972Z,942.17
2018-10-17T15:17:49.024Z,942.17
2018-10-17T15:18:57.098Z,942.13
2018-10-17T15:20:05.262Z,942.17
2018-10-17T15:21:13.473Z,942.15
2018-10-17T15:22:21.306Z,942.10
2018-10-17T15:23:29.362Z,942.11
2018-10-17T15:24:37.477Z,942.08
2018-10-17T15:25:45.504Z,942.15
2018-10-17T15:26:53.587Z,942.12
2018-10-17T15:28:01.641Z,942.11
2018-10-17T15:29:09.711Z,942.14
2018-10-17T15:30:17.910Z,942.14
2018-10-17T15:31:26.077Z,942.10
2018-10-17T15:32:33.904Z,942.13
2018-10-17T15:33:41.978Z,942.10
2018-10-17T15:34:50.044Z,942.10
2018-10-17T15:35:58.290Z,942.08
2018-10-17T15:37:06.357Z,942.11
2018-10-17T15:38:14.254Z,942.12
2018-10-17T15:39:22.324Z,942.10
2018-10-17T15:40:30.396Z,942.07
2018-10-17T15:41:38.432Z,942.10
2018-10-17T15:42:46.577Z,942.07
2018-10-17T15:43:54.589Z,942.10
2018-10-17T15:45:02.760Z,942.06
2018-10-17T15:46:10.724Z,942.08
2018-10-17T15:47:18.789Z,942.05
2018-10-17T15:48:26.889Z,942.03
2018-10-17T15:49:37.141Z,942.04
2018-10-17T15:50:45.410Z,942.07
2018-10-17T15:54:18.931Z,942.08
2018-10-17T15:55:26.976Z,942.07
2018-10-17T15:56:35.035Z,942.08
2018-10-17T15:57:43.201Z,942.08
2018-10-17T15:58:51.187Z,942.10
2018-10-17T15:59:59.300Z,942.10
2018-10-17T16:01:07.348Z,942.14
2018-10-17T16:02:15.477Z,942.12
2018-10-17T16:03:23.531Z,942.08
2018-10-17T16:04:31.508Z,942.11
2018-10-17T16:05:39.567Z,942.15
2018-10-17T16:06:47.636Z,942.12
2018-10-17T16:07:55.847Z,942.15
2018-10-17T16:09:03.819Z,942.13
2018-10-17T16:10:11.849Z,942.13
2018-10-17T16:11:19.912Z,942.11
2018-10-17T16:12:27.986Z,942.10
2018-10-17T16:13:36.054Z,942.10
2018-10-17T16:14:44.211Z,942.06
2018-10-17T16:15:52.196Z,942.13
2018-10-17T16:17:00.303Z,942.13
2018-10-17T16:18:08.342Z,942.14
2018-10-17T16:19:16.374Z,942.14
2018-10-17T16:20:24.530Z,942.21
2018-10-17T16:21:32.503Z,942.17
2018-10-17T16:22:40.700Z,942.22
2018-10-17T16:23:48.612Z,942.22
2018-10-17T16:24:56.707Z,942.19
2018-10-17T16:26:04.942Z,942.21